Allegany, New York
Current Conditions -  °F | °C
As of 3:35 PM on Tuesday 21 Oct 2014 (Local Time) from KOLE Reporting Station
Overcast Overcast  
Wind Chill: 46°   Ceiling: 900
Heat Index: 46°   Visibility: 10mi
Dew Point: 46°   Wind: 3mph
Humidity: 100%   Direction: 330°NNW
Pressure: 29.86"   Gusts: NA
Location:  42.09°N, 78.49°W
Report Text: KOLE 211935Z AUTO 33003KT 10SM BKN009 BKN016 OVC055 08/08 A2986 RMK AO2
Loading
Personal Weather Stations






























Interactive Weather Map New forecast layout! Learn more

10-Day Weather Forecast

Advertisements
Track Severe Weather on mobile